sensor_id;sensor_type;location;lat;lon;timestamp;pressure;altitude;pressure_sealevel;temperature;humidity
29315;BME280;16320;53.954;9.506;2023-04-05T00:01:13;102283.34;;;1.86;100.00
29315;BME280;16320;53.954;9.506;2023-04-05T00:04:19;102274.72;;;1.87;100.00
29315;BME280;16320;53.954;9.506;2023-04-05T00:07:24;102283.34;;;1.84;100.00
29315;BME280;16320;53.954;9.506;2023-04-05T00:10:30;102278.16;;;1.84;100.00
29315;BME280;16320;53.954;9.506;2023-04-05T00:13:36;102282.44;;;1.80;100.00
29315;BME280;16320;53.954;9.506;2023-04-05T00:16:40;102278.06;;;1.75;100.00
29315;BME280;16320;53.954;9.506;2023-04-05T00:19:45;102284.09;;;1.75;100.00
29315;BME280;16320;53.954;9.506;2023-04-05T00:22:54;102278.91;;;1.74;100.00
29315;BME280;16320;53.954;9.506;2023-04-05T00:25:59;102284.09;;;1.71;100.00
29315;BME280;16320;53.954;9.506;2023-04-05T00:29:03;102274.56;;;1.71;100.00
29315;BME280;16320;53.954;9.506;2023-04-05T00:32:07;102275.41;;;1.69;100.00
29315;BME280;16320;53.954;9.506;2023-04-05T00:35:12;102273.66;;;1.64;100.00
29315;BME280;16320;53.954;9.506;2023-04-05T00:38:16;102265.88;;;1.63;100.00
29315;BME280;16320;53.954;9.506;2023-04-05T00:41:21;102271.91;;;1.63;100.00
29315;BME280;16320;53.954;9.506;2023-04-05T00:44:25;102262.38;;;1.58;100.00
29315;BME280;16320;53.954;9.506;2023-04-05T00:47:30;102263.16;;;1.52;100.00
29315;BME280;16320;53.954;9.506;2023-04-05T00:50:35;102258.84;;;1.51;100.00
29315;BME280;16320;53.954;9.506;2023-04-05T00:53:39;102257.94;;;1.49;100.00
29315;BME280;16320;53.954;9.506;2023-04-05T00:56:47;102263.13;;;1.49;100.00
29315;BME280;16320;53.954;9.506;2023-04-05T00:59:51;102258.78;;;1.45;100.00
29315;BME280;16320;53.954;9.506;2023-04-05T01:02:59;102262.22;;;1.45;100.00
29315;BME280;16320;53.954;9.506;2023-04-05T01:09:59;102254.47;;;1.47;100.00
29315;BME280;16320;53.954;9.506;2023-04-05T01:13:05;102258.78;;;1.45;100.00
29315;BME280;16320;53.954;9.506;2023-04-05T01:16:09;102260.50;;;1.48;100.00
29315;BME280;16320;53.954;9.506;2023-04-05T01:19:16;102260.50;;;1.46;100.00
29315;BME280;16320;53.954;9.506;2023-04-05T01:33:24;102261.44;;;1.51;100.00
29315;BME280;16320;53.954;9.506;2023-04-05T01:36:40;102257.97;;;1.52;100.00
29315;BME280;16320;53.954;9.506;2023-04-05T01:39:48;102255.38;;;1.51;100.00
29315;BME280;16320;53.954;9.506;2023-04-05T01:42:53;102242.41;;;1.49;100.00
29315;BME280;16320;53.954;9.506;2023-04-05T01:45:58;102244.16;;;1.50;100.00
29315;BME280;16320;53.954;9.506;2023-04-05T01:49:03;102238.97;;;1.50;100.00
29315;BME280;16320;53.954;9.506;2023-04-05T01:52:08;102238.94;;;1.47;100.00
29315;BME280;16320;53.954;9.506;2023-04-05T01:55:12;102238.03;;;1.43;100.00
29315;BME280;16320;53.954;9.506;2023-04-05T01:58:17;102234.56;;;1.41;100.00
29315;BME280;16320;53.954;9.506;2023-04-05T02:01:21;102227.63;;;1.39;100.00
29315;BME280;16320;53.954;9.506;2023-04-05T02:04:25;102225.88;;;1.36;100.00
29315;BME280;16320;53.954;9.506;2023-04-05T02:07:30;102216.41;;;1.37;100.00
29315;BME280;16320;53.954;9.506;2023-04-05T02:10:34;102221.56;;;1.37;100.00
29315;BME280;16320;53.954;9.506;2023-04-05T02:13:39;102223.25;;;1.35;100.00
29315;BME280;16320;53.954;9.506;2023-04-05T02:16:43;102218.09;;;1.35;100.00
29315;BME280;16320;53.954;9.506;2023-04-05T02:19:48;102225.00;;;1.36;100.00
29315;BME280;16320;53.954;9.506;2023-04-05T02:22:53;102227.56;;;1.34;100.00
29315;BME280;16320;53.954;9.506;2023-04-05T02:25:58;102220.66;;;1.32;100.00
29315;BME280;16320;53.954;9.506;2023-04-05T02:29:02;102218.06;;;1.32;100.00
29315;BME280;16320;53.954;9.506;2023-04-05T02:32:07;102230.06;;;1.25;100.00
29315;BME280;16320;53.954;9.506;2023-04-05T02:35:11;102225.78;;;1.25;100.00
29315;BME280;16320;53.954;9.506;2023-04-05T02:38:16;102230.03;;;1.20;100.00
29315;BME280;16320;53.954;9.506;2023-04-05T02:41:20;102230.00;;;1.17;100.00
29315;BME280;16320;53.954;9.506;2023-04-05T02:44:28;102230.78;;;1.12;100.00
29315;BME280;16320;53.954;9.506;2023-04-05T02:47:33;102226.44;;;1.09;100.00
29315;BME280;16320;53.954;9.506;2023-04-05T02:50:38;102238.38;;;0.98;100.00
29315;BME280;16320;53.954;9.506;2023-04-05T02:53:42;102232.22;;;0.86;100.00
29315;BME280;16320;53.954;9.506;2023-04-05T02:56:48;102234.75;;;0.83;100.00
29315;BME280;16320;53.954;9.506;2023-04-05T02:59:52;102229.53;;;0.80;100.00
29315;BME280;16320;53.954;9.506;2023-04-05T03:02:57;102232.19;;;0.85;100.00
29315;BME280;16320;53.954;9.506;2023-04-05T03:06:05;102237.56;;;1.03;100.00
29315;BME280;16320;53.954;9.506;2023-04-05T03:09:14;102239.41;;;1.14;100.00
29315;BME280;16320;53.954;9.506;2023-04-05T03:12:18;102227.38;;;1.14;100.00
29315;BME280;16320;53.954;9.506;2023-04-05T03:15:23;102233.44;;;1.18;100.00
29315;BME280;16320;53.954;9.506;2023-04-05T03:18:27;102223.06;;;1.16;100.00
29315;BME280;16320;53.954;9.506;2023-04-05T03:21:34;102225.56;;;1.10;100.00
29315;BME280;16320;53.954;9.506;2023-04-05T03:24:38;102220.31;;;1.02;100.00
29315;BME280;16320;53.954;9.506;2023-04-05T03:27:45;102213.41;;;1.01;100.00
29315;BME280;16320;53.954;9.506;2023-04-05T03:30:50;102229.91;;;1.11;100.00
29315;BME280;16320;53.954;9.506;2023-04-05T03:33:54;102219.69;;;1.23;100.00
29315;BME280;16320;53.954;9.506;2023-04-05T03:36:58;102226.66;;;1.27;100.00
29315;BME280;16320;53.954;9.506;2023-04-05T03:40:03;102224.06;;;1.27;100.00
29315;BME280;16320;53.954;9.506;2023-04-05T03:43:09;102233.53;;;1.25;100.00
29315;BME280;16320;53.954;9.506;2023-04-05T03:46:14;102232.63;;;1.20;100.00
29315;BME280;16320;53.954;9.506;2023-04-05T03:49:18;102233.47;;;1.19;100.00
29315;BME280;16320;53.954;9.506;2023-04-05T03:52:23;102220.56;;;1.22;100.00
29315;BME280;16320;53.954;9.506;2023-04-05T03:55:28;102235.38;;;1.36;100.00
29315;BME280;16320;53.954;9.506;2023-04-05T03:58:32;102227.75;;;1.50;100.00
29315;BME280;16320;53.954;9.506;2023-04-05T04:01:37;102226.91;;;1.54;100.00
29315;BME280;16320;53.954;9.506;2023-04-05T04:04:41;102225.19;;;1.51;100.00
29315;BME280;16320;53.954;9.506;2023-04-05T04:07:46;102220.75;;;1.42;100.00
29315;BME280;16320;53.954;9.506;2023-04-05T04:10:51;102225.16;;;1.53;100.00
29315;BME280;16320;53.954;9.506;2023-04-05T04:13:55;102236.47;;;1.58;100.00
29315;BME280;16320;53.954;9.506;2023-04-05T04:16:59;102227.03;;;1.64;100.00
29315;BME280;16320;53.954;9.506;2023-04-05T04:20:05;102229.72;;;1.77;100.00
29315;BME280;16320;53.954;9.506;2023-04-05T04:23:15;102229.78;;;1.85;100.00
29315;BME280;16320;53.954;9.506;2023-04-05T04:26:19;102228.94;;;1.84;100.00
29315;BME280;16320;53.954;9.506;2023-04-05T04:29:30;102230.66;;;1.85;100.00
29315;BME280;16320;53.954;9.506;2023-04-05T04:32:39;102222.06;;;1.89;100.00
29315;BME280;16320;53.954;9.506;2023-04-05T04:36:07;102222.94;;;1.93;100.00
29315;BME280;16320;53.954;9.506;2023-04-05T04:39:12;102231.69;;;2.06;100.00
29315;BME280;16320;53.954;9.506;2023-04-05T04:42:17;102232.59;;;2.11;100.00
29315;BME280;16320;53.954;9.506;2023-04-05T04:45:23;102223.09;;;2.14;100.00
29315;BME280;16320;53.954;9.506;2023-04-05T04:48:28;102220.59;;;2.24;100.00
29315;BME280;16320;53.954;9.506;2023-04-05T04:51:32;102220.63;;;2.28;100.00
29315;BME280;16320;53.954;9.506;2023-04-05T04:54:37;102220.56;;;2.22;100.00
29315;BME280;16320;53.954;9.506;2023-04-05T04:57:45;102215.38;;;2.20;100.00
29315;BME280;16320;53.954;9.506;2023-04-05T05:00:49;102217.06;;;2.14;100.00
29315;BME280;16320;53.954;9.506;2023-04-05T05:03:56;102218.84;;;2.24;100.00
29315;BME280;16320;53.954;9.506;2023-04-05T05:07:01;102222.28;;;2.20;100.00
29315;BME280;16320;53.954;9.506;2023-04-05T05:10:06;102216.31;;;2.32;100.00
29315;BME280;16320;53.954;9.506;2023-04-05T05:13:10;102213.69;;;2.21;100.00
29315;BME280;16320;53.954;9.506;2023-04-05T05:16:14;102210.22;;;2.22;100.00
29315;BME280;16320;53.954;9.506;2023-04-05T05:19:20;102214.63;;;2.38;100.00
29315;BME280;16320;53.954;9.506;2023-04-05T05:22:25;102221.56;;;2.41;100.00
29315;BME280;16320;53.954;9.506;2023-04-05T05:25:30;102208.59;;;2.40;100.00
29315;BME280;16320;53.954;9.506;2023-04-05T05:28:34;102209.50;;;2.49;100.00
29315;BME280;16320;53.954;9.506;2023-04-05T05:31:39;102215.53;;;2.41;100.00
29315;BME280;16320;53.954;9.506;2023-04-05T05:34:44;102204.28;;;2.43;100.00
29315;BME280;16320;53.954;9.506;2023-04-05T05:37:49;102218.22;;;2.58;100.00
29315;BME280;16320;53.954;9.506;2023-04-05T05:40:56;102217.41;;;2.69;100.00
29315;BME280;16320;53.954;9.506;2023-04-05T05:44:01;102229.47;;;2.61;100.00
29315;BME280;16320;53.954;9.506;2023-04-05T05:47:06;102223.47;;;2.70;100.00
29315;BME280;16320;53.954;9.506;2023-04-05T05:50:10;102216.59;;;2.78;100.00
29315;BME280;16320;53.954;9.506;2023-04-05T05:53:14;102218.34;;;2.88;100.00
29315;BME280;16320;53.954;9.506;2023-04-05T05:56:19;102216.66;;;2.93;100.00
29315;BME280;16320;53.954;9.506;2023-04-05T05:59:24;102216.75;;;3.14;100.00
29315;BME280;16320;53.954;9.506;2023-04-05T06:02:28;102217.63;;;3.22;100.00
29315;BME280;16320;53.954;9.506;2023-04-05T06:05:34;102221.09;;;3.24;100.00
29315;BME280;16320;53.954;9.506;2023-04-05T06:08:38;102208.13;;;3.42;100.00
29315;BME280;16320;53.954;9.506;2023-04-05T06:11:42;102200.38;;;3.58;100.00
29315;BME280;16320;53.954;9.506;2023-04-05T06:15:00;102200.38;;;3.72;100.00
29315;BME280;16320;53.954;9.506;2023-04-05T06:18:05;102196.06;;;3.72;100.00
29315;BME280;16320;53.954;9.506;2023-04-05T06:21:09;102191.72;;;3.77;100.00
29315;BME280;16320;53.954;9.506;2023-04-05T06:24:14;102188.22;;;3.78;100.00
29315;BME280;16320;53.954;9.506;2023-04-05T06:27:18;102170.94;;;3.79;100.00
29315;BME280;16320;53.954;9.506;2023-04-05T06:30:23;102168.31;;;3.76;100.00
29315;BME280;16320;53.954;9.506;2023-04-05T06:33:27;102180.47;;;3.69;100.00
29315;BME280;16320;53.954;9.506;2023-04-05T06:36:32;102188.25;;;3.63;100.00
29315;BME280;16320;53.954;9.506;2023-04-05T06:39:37;102183.91;;;3.46;100.00
29315;BME280;16320;53.954;9.506;2023-04-05T06:42:42;102183.91;;;3.45;100.00
29315;BME280;16320;53.954;9.506;2023-04-05T06:45:46;102176.97;;;3.52;100.00
29315;BME280;16320;53.954;9.506;2023-04-05T06:48:52;102176.09;;;3.45;100.00
29315;BME280;16320;53.954;9.506;2023-04-05T06:51:56;102175.25;;;3.54;100.00
29315;BME280;16320;53.954;9.506;2023-04-05T06:55:01;102170.06;;;3.61;100.00
29315;BME280;16320;53.954;9.506;2023-04-05T06:58:05;102167.44;;;3.60;100.00
29315;BME280;16320;53.954;9.506;2023-04-05T07:01:09;102171.78;;;3.67;100.00
29315;BME280;16320;53.954;9.506;2023-04-05T07:04:14;102170.94;;;3.71;100.00
29315;BME280;16320;53.954;9.506;2023-04-05T07:07:19;102163.13;;;3.76;100.00
29315;BME280;16320;53.954;9.506;2023-04-05T07:10:23;102167.44;;;3.75;100.00
29315;BME280;16320;53.954;9.506;2023-04-05T07:13:27;102168.31;;;3.88;100.00
29315;BME280;16320;53.954;9.506;2023-04-05T07:16:32;102160.50;;;3.93;100.00
29315;BME280;16320;53.954;9.506;2023-04-05T07:19:37;102158.75;;;4.07;100.00
29315;BME280;16320;53.954;9.506;2023-04-05T07:22:42;102158.75;;;4.19;100.00
29315;BME280;16320;53.954;9.506;2023-04-05T07:25:46;102157.84;;;4.33;100.00
29315;BME280;16320;53.954;9.506;2023-04-05T07:28:51;102146.53;;;4.38;100.00
29315;BME280;16320;53.954;9.506;2023-04-05T07:31:55;102136.09;;;4.49;100.00
29315;BME280;16320;53.954;9.506;2023-04-05T07:35:00;102137.75;;;4.69;100.00
29315;BME280;16320;53.954;9.506;2023-04-05T07:38:06;102128.16;;;4.82;100.00
29315;BME280;16320;53.954;9.506;2023-04-05T07:41:10;102129.00;;;4.85;100.00
29315;BME280;16320;53.954;9.506;2023-04-05T07:44:14;102127.25;;;4.87;100.00
29315;BME280;16320;53.954;9.506;2023-04-05T07:47:18;102115.94;;;4.98;100.00
29315;BME280;16320;53.954;9.506;2023-04-05T07:50:25;102105.41;;;5.08;100.00
29315;BME280;16320;53.954;9.506;2023-04-05T07:53:29;102110.59;;;5.16;100.00
29315;BME280;16320;53.954;9.506;2023-04-05T07:56:36;102100.97;;;5.24;100.00
29315;BME280;16320;53.954;9.506;2023-04-05T07:59:41;102102.72;;;5.22;100.00
29315;BME280;16320;53.954;9.506;2023-04-05T08:02:46;102093.97;;;5.29;100.00
29315;BME280;16320;53.954;9.506;2023-04-05T08:05:50;102093.97;;;5.29;100.00
29315;BME280;16320;53.954;9.506;2023-04-05T08:08:58;102086.09;;;5.37;100.00
29315;BME280;16320;53.954;9.506;2023-04-05T08:12:02;102083.50;;;5.36;100.00
29315;BME280;16320;53.954;9.506;2023-04-05T08:15:07;102093.88;;;5.43;100.00
29315;BME280;16320;53.954;9.506;2023-04-05T08:18:11;102086.91;;;5.44;100.00
29315;BME280;16320;53.954;9.506;2023-04-05T08:21:16;102085.09;;;5.55;100.00
29315;BME280;16320;53.954;9.506;2023-04-05T08:24:20;102088.50;;;5.63;100.00
29315;BME280;16320;53.954;9.506;2023-04-05T08:27:25;102095.38;;;5.71;100.00
29315;BME280;16320;53.954;9.506;2023-04-05T08:30:29;102089.25;;;5.75;100.00
29315;BME280;16320;53.954;9.506;2023-04-05T08:33:34;102092.56;;;5.91;100.00
29315;BME280;16320;53.954;9.506;2023-04-05T08:36:38;102091.72;;;5.90;100.00
29315;BME280;16320;53.954;9.506;2023-04-05T08:39:42;102091.56;;;6.05;100.00
29315;BME280;16320;53.954;9.506;2023-04-05T08:43:02;102083.72;;;6.07;100.00
29315;BME280;16320;53.954;9.506;2023-04-05T08:46:08;102089.69;;;6.20;100.00
29315;BME280;16320;53.954;9.506;2023-04-05T08:49:13;102095.53;;;6.40;100.00
29315;BME280;16320;53.954;9.506;2023-04-05T08:52:18;102082.09;;;6.70;100.00
29315;BME280;16320;53.954;9.506;2023-04-05T08:55:23;102066.34;;;6.77;100.00
29315;BME280;16320;53.954;9.506;2023-04-05T08:58:30;102073.38;;;6.69;100.00
29315;BME280;16320;53.954;9.506;2023-04-05T09:01:43;102070.34;;;6.99;100.00
29315;BME280;16320;53.954;9.506;2023-04-05T09:04:49;102067.50;;;7.15;100.00
29315;BME280;16320;53.954;9.506;2023-04-05T09:07:57;102062.19;;;7.22;100.00
29315;BME280;16320;53.954;9.506;2023-04-05T09:11:02;102067.59;;;7.09;100.00
29315;BME280;16320;53.954;9.506;2023-04-05T09:14:06;102059.84;;;7.02;100.00
29315;BME280;16320;53.954;9.506;2023-04-05T09:17:10;102057.50;;;6.85;100.00
29315;BME280;16320;53.954;9.506;2023-04-05T09:20:16;102066.06;;;6.94;100.00
29315;BME280;16320;53.954;9.506;2023-04-05T09:23:20;102054.84;;;6.88;100.00
29315;BME280;16320;53.954;9.506;2023-04-05T09:26:25;102040.78;;;6.96;100.00
29315;BME280;16320;53.954;9.506;2023-04-05T09:29:29;102041.50;;;7.06;100.00
29315;BME280;16320;53.954;9.506;2023-04-05T09:32:34;102040.34;;;7.24;100.00
29315;BME280;16320;53.954;9.506;2023-04-05T09:35:38;102032.22;;;7.41;100.00
29315;BME280;16320;53.954;9.506;2023-04-05T09:38:44;102031.00;;;7.61;100.00
29315;BME280;16320;53.954;9.506;2023-04-05T09:42:11;102028.28;;;7.67;100.00
29315;BME280;16320;53.954;9.506;2023-04-05T09:45:16;102036.94;;;7.69;100.00
29315;BME280;16320;53.954;9.506;2023-04-05T09:48:49;102028.53;;;7.51;100.00
29315;BME280;16320;53.954;9.506;2023-04-05T09:51:55;102028.44;;;7.58;100.00
29315;BME280;16320;53.954;9.506;2023-04-05T09:55:03;102030.69;;;7.76;100.00
29315;BME280;16320;53.954;9.506;2023-04-05T09:58:11;102028.00;;;7.81;100.00
29315;BME280;16320;53.954;9.506;2023-04-05T10:01:18;102028.13;;;7.75;100.00
29315;BME280;16320;53.954;9.506;2023-04-05T10:04:23;102015.09;;;7.72;100.00
29315;BME280;16320;53.954;9.506;2023-04-05T10:07:28;102012.03;;;7.95;100.00
29315;BME280;16320;53.954;9.506;2023-04-05T10:10:37;102012.66;;;8.50;100.00
29315;BME280;16320;53.954;9.506;2023-04-05T10:13:49;102003.81;;;8.91;100.00
29315;BME280;16320;53.954;9.506;2023-04-05T10:17:38;102003.94;;;8.87;100.00
29315;BME280;16320;53.954;9.506;2023-04-05T10:20:50;102007.44;;;8.87;100.00
29315;BME280;16320;53.954;9.506;2023-04-05T10:27:31;101996.56;;;8.67;100.00
29315;BME280;16320;53.954;9.506;2023-04-05T10:30:45;102002.75;;;8.63;100.00
29315;BME280;16320;53.954;9.506;2023-04-05T10:34:00;101995.88;;;8.58;100.00
29315;BME280;16320;53.954;9.506;2023-04-05T10:37:08;101983.06;;;8.46;100.00
29315;BME280;16320;53.954;9.506;2023-04-05T10:40:20;101993.53;;;8.46;100.00
29315;BME280;16320;53.954;9.506;2023-04-05T10:43:28;101981.38;;;8.42;100.00
29315;BME280;16320;53.954;9.506;2023-04-05T10:46:35;101972.31;;;8.58;100.00
29315;BME280;16320;53.954;9.506;2023-04-05T10:49:46;101973.50;;;8.45;100.00
29315;BME280;16320;53.954;9.506;2023-04-05T10:52:52;101979.66;;;8.41;100.00
29315;BME280;16320;53.954;9.506;2023-04-05T10:55:57;101977.88;;;8.43;100.00
29315;BME280;16320;53.954;9.506;2023-04-05T10:59:01;101961.09;;;8.53;100.00
29315;BME280;16320;53.954;9.506;2023-04-05T11:02:08;101968.91;;;8.91;100.00
29315;BME280;16320;53.954;9.506;2023-04-05T11:05:34;101963.13;;;9.12;100.00
29315;BME280;16320;53.954;9.506;2023-04-05T11:08:42;101963.31;;;9.70;100.00
29315;BME280;16320;53.954;9.506;2023-04-05T11:11:50;101947.22;;;10.13;100.00
29315;BME280;16320;53.954;9.506;2023-04-05T11:18:31;101937.00;;;10.03;100.00
29315;BME280;16320;53.954;9.506;2023-04-05T11:21:35;101933.56;;;10.30;100.00
29315;BME280;16320;53.954;9.506;2023-04-05T11:25:00;101924.97;;;9.96;100.00
29315;BME280;16320;53.954;9.506;2023-04-05T11:28:07;101925.28;;;10.14;100.00
29315;BME280;16320;53.954;9.506;2023-04-05T11:31:16;101920.22;;;10.37;99.42
29315;BME280;16320;53.954;9.506;2023-04-05T11:34:23;101911.56;;;10.35;98.33
29315;BME280;16320;53.954;9.506;2023-04-05T11:41:16;101913.44;;;10.30;100.00
29315;BME280;16320;53.954;9.506;2023-04-05T11:44:22;101915.97;;;10.33;100.00
29315;BME280;16320;53.954;9.506;2023-04-05T11:47:29;101919.25;;;10.12;100.00
29315;BME280;16320;53.954;9.506;2023-04-05T11:50:36;101915.09;;;10.04;100.00
29315;BME280;16320;53.954;9.506;2023-04-05T11:53:46;101917.00;;;9.99;100.00
29315;BME280;16320;53.954;9.506;2023-04-05T11:56:50;101905.88;;;9.91;100.00
29315;BME280;16320;53.954;9.506;2023-04-05T11:59:55;101908.13;;;9.74;100.00
29315;BME280;16320;53.954;9.506;2023-04-05T12:02:59;101906.09;;;9.52;100.00
29315;BME280;16320;53.954;9.506;2023-04-05T12:06:05;101905.81;;;9.31;100.00
29315;BME280;16320;53.954;9.506;2023-04-05T12:09:10;101889.56;;;9.50;100.00
29315;BME280;16320;53.954;9.506;2023-04-05T12:12:16;101890.44;;;9.50;100.00
29315;BME280;16320;53.954;9.506;2023-04-05T12:15:21;101873.91;;;9.47;98.54
29315;BME280;16320;53.954;9.506;2023-04-05T12:18:29;101879.06;;;9.50;100.00
29315;BME280;16320;53.954;9.506;2023-04-05T12:21:34;101885.78;;;9.60;100.00
29315;BME280;16320;53.954;9.506;2023-04-05T12:24:38;101878.63;;;9.65;100.00
29315;BME280;16320;53.954;9.506;2023-04-05T12:27:43;101869.13;;;9.91;100.00
29315;BME280;16320;53.954;9.506;2023-04-05T12:30:53;101861.94;;;10.24;100.00
29315;BME280;16320;53.954;9.506;2023-04-05T12:34:00;101862.34;;;10.92;98.06
29315;BME280;16320;53.954;9.506;2023-04-05T12:37:04;101848.72;;;11.77;100.00
29315;BME280;16320;53.954;9.506;2023-04-05T12:40:09;101842.09;;;12.55;100.00
29315;BME280;16320;53.954;9.506;2023-04-05T12:43:14;101843.28;;;13.10;77.57
29315;BME280;16320;53.954;9.506;2023-04-05T12:46:41;101840.78;;;12.45;62.25
29315;BME280;16320;53.954;9.506;2023-04-05T12:49:46;101835.22;;;11.86;57.59
29315;BME280;16320;53.954;9.506;2023-04-05T12:52:58;101840.72;;;11.09;80.42
29315;BME280;16320;53.954;9.506;2023-04-05T12:56:06;101831.19;;;10.28;79.17
29315;BME280;16320;53.954;9.506;2023-04-05T12:59:10;101832.63;;;10.40;86.07
29315;BME280;16320;53.954;9.506;2023-04-05T13:02:15;101839.22;;;10.52;91.79
29315;BME280;16320;53.954;9.506;2023-04-05T13:05:28;101830.19;;;10.59;77.20
29315;BME280;16320;53.954;9.506;2023-04-05T13:08:33;101837.63;;;10.46;73.78
29315;BME280;16320;53.954;9.506;2023-04-05T13:11:37;101828.72;;;10.52;72.79
29315;BME280;16320;53.954;9.506;2023-04-05T13:14:41;101836.41;;;10.30;89.20
29315;BME280;16320;53.954;9.506;2023-04-05T13:17:45;101837.31;;;10.29;78.55
29315;BME280;16320;53.954;9.506;2023-04-05T13:20:53;101837.19;;;10.33;75.87
29315;BME280;16320;53.954;9.506;2023-04-05T13:23:58;101834.25;;;10.42;80.41
29315;BME280;16320;53.954;9.506;2023-04-05T13:27:03;101833.28;;;10.97;80.83
29315;BME280;16320;53.954;9.506;2023-04-05T13:30:08;101829.53;;;11.28;75.22
29315;BME280;16320;53.954;9.506;2023-04-05T13:33:12;101834.19;;;10.96;60.66
29315;BME280;16320;53.954;9.506;2023-04-05T13:36:17;101823.31;;;10.56;68.97
29315;BME280;16320;53.954;9.506;2023-04-05T13:39:21;101828.34;;;10.36;77.03
29315;BME280;16320;53.954;9.506;2023-04-05T13:42:26;101819.97;;;10.23;80.08
29315;BME280;16320;53.954;9.506;2023-04-05T13:45:30;101826.03;;;10.25;77.70
29315;BME280;16320;53.954;9.506;2023-04-05T13:48:35;101828.06;;;10.17;86.66
29315;BME280;16320;53.954;9.506;2023-04-05T13:51:40;101819.88;;;9.99;92.80
29315;BME280;16320;53.954;9.506;2023-04-05T13:54:46;101818.19;;;9.97;97.24
29315;BME280;16320;53.954;9.506;2023-04-05T13:58:05;101816.84;;;9.85;97.46
29315;BME280;16320;53.954;9.506;2023-04-05T14:01:10;101812.13;;;9.66;100.00
29315;BME280;16320;53.954;9.506;2023-04-05T14:04:15;101806.53;;;9.79;100.00
29315;BME280;16320;53.954;9.506;2023-04-05T14:07:21;101813.28;;;9.86;100.00
29315;BME280;16320;53.954;9.506;2023-04-05T14:10:26;101809.56;;;9.93;100.00
29315;BME280;16320;53.954;9.506;2023-04-05T14:13:30;101802.78;;;9.86;100.00
29315;BME280;16320;53.954;9.506;2023-04-05T14:16:35;101813.50;;;9.80;100.00
29315;BME280;16320;53.954;9.506;2023-04-05T14:19:41;101812.75;;;9.75;100.00
29315;BME280;16320;53.954;9.506;2023-04-05T14:22:45;101799.06;;;9.65;100.00
29315;BME280;16320;53.954;9.506;2023-04-05T14:25:50;101803.31;;;9.69;100.00
29315;BME280;16320;53.954;9.506;2023-04-05T14:28:54;101811.38;;;9.63;100.00
29315;BME280;16320;53.954;9.506;2023-04-05T14:31:58;101810.47;;;9.34;100.00
29315;BME280;16320;53.954;9.506;2023-04-05T14:35:03;101812.28;;;9.32;100.00
29315;BME280;16320;53.954;9.506;2023-04-05T14:38:08;101816.22;;;9.47;100.00
29315;BME280;16320;53.954;9.506;2023-04-05T14:41:13;101813.13;;;9.32;100.00
29315;BME280;16320;53.954;9.506;2023-04-05T14:44:17;101817.28;;;9.10;100.00
29315;BME280;16320;53.954;9.506;2023-04-05T14:47:21;101809.84;;;8.94;100.00
29315;BME280;16320;53.954;9.506;2023-04-05T14:50:26;101812.91;;;8.79;100.00
29315;BME280;16320;53.954;9.506;2023-04-05T14:53:30;101802.56;;;8.73;100.00
29315;BME280;16320;53.954;9.506;2023-04-05T14:56:35;101800.22;;;9.56;100.00
29315;BME280;16320;53.954;9.506;2023-04-05T14:59:40;101794.97;;;9.84;100.00
29315;BME280;16320;53.954;9.506;2023-04-05T15:02:44;101796.97;;;9.48;100.00
29315;BME280;16320;53.954;9.506;2023-04-05T15:05:49;101784.28;;;9.62;100.00
29315;BME280;16320;53.954;9.506;2023-04-05T15:08:54;101778.88;;;9.68;100.00
29315;BME280;16320;53.954;9.506;2023-04-05T15:11:58;101796.13;;;9.47;100.00
29315;BME280;16320;53.954;9.506;2023-04-05T15:15:05;101794.34;;;9.18;100.00
29315;BME280;16320;53.954;9.506;2023-04-05T15:18:10;101785.13;;;9.63;100.00
29315;BME280;16320;53.954;9.506;2023-04-05T15:21:15;101778.16;;;9.62;100.00
29315;BME280;16320;53.954;9.506;2023-04-05T15:24:20;101773.22;;;9.52;100.00
29315;BME280;16320;53.954;9.506;2023-04-05T15:27:24;101775.41;;;9.66;100.00
29315;BME280;16320;53.954;9.506;2023-04-05T15:30:29;101773.69;;;9.94;100.00
29315;BME280;16320;53.954;9.506;2023-04-05T15:33:34;101764.25;;;9.88;100.00
29315;BME280;16320;53.954;9.506;2023-04-05T15:36:39;101760.22;;;9.76;100.00
29315;BME280;16320;53.954;9.506;2023-04-05T15:39:43;101754.81;;;9.54;100.00
29315;BME280;16320;53.954;9.506;2023-04-05T15:42:48;101763.47;;;9.28;100.00
29315;BME280;16320;53.954;9.506;2023-04-05T15:45:52;101760.56;;;9.07;100.00
29315;BME280;16320;53.954;9.506;2023-04-05T15:48:57;101755.34;;;9.92;100.00
29315;BME280;16320;53.954;9.506;2023-04-05T15:52:02;101746.59;;;10.47;100.00
29315;BME280;16320;53.954;9.506;2023-04-05T15:55:07;101752.41;;;10.28;100.00
29315;BME280;16320;53.954;9.506;2023-04-05T15:58:12;101741.50;;;10.66;100.00
29315;BME280;16320;53.954;9.506;2023-04-05T16:01:16;101746.75;;;10.66;100.00
29315;BME280;16320;53.954;9.506;2023-04-05T16:04:21;101746.47;;;10.50;100.00
29315;BME280;16320;53.954;9.506;2023-04-05T16:07:26;101741.66;;;10.11;100.00
29315;BME280;16320;53.954;9.506;2023-04-05T16:10:30;101745.66;;;9.67;100.00
29315;BME280;16320;53.954;9.506;2023-04-05T16:13:35;101743.09;;;9.38;100.00
29315;BME280;16320;53.954;9.506;2023-04-05T16:16:39;101740.78;;;9.27;100.00
29315;BME280;16320;53.954;9.506;2023-04-05T16:19:56;101751.09;;;9.02;100.00
29315;BME280;16320;53.954;9.506;2023-04-05T16:23:01;101747.97;;;8.90;100.00
29315;BME280;16320;53.954;9.506;2023-04-05T16:26:05;101746.41;;;8.83;100.00
29315;BME280;16320;53.954;9.506;2023-04-05T16:29:10;101744.34;;;8.63;100.00
29315;BME280;16320;53.954;9.506;2023-04-05T16:32:14;101748.31;;;8.45;100.00
29315;BME280;16320;53.954;9.506;2023-04-05T16:35:19;101755.63;;;8.31;100.00
29315;BME280;16320;53.954;9.506;2023-04-05T16:38:24;101754.13;;;8.20;100.00